Time;durP1;ratioP1;P1;durP2;ratioP2;P2;SDS_P1;SDS_P2;PMS_P1;PMS_P2;Temp;Humidity;BMP_temperature;BMP_pressure;BME280_temperature;BME280_humidity;BME280_pressure;Samples;Min_cycle;Max_cycle;Signal;HPM_P1;HPM_P2
2022/04/30 00:02:11;;;;;;;410.87;389.87;;;8.90;99.90;;;;;;5052473;28;20311;-66
2022/04/30 00:04:40;;;;;;;313.00;297.60;;;8.90;99.90;;;;;;5052631;28;20237;-66
2022/04/30 00:07:06;;;;;;;335.43;318.70;;;8.90;99.90;;;;;;5041778;28;20202;-66
2022/04/30 00:09:32;;;;;;;436.67;414.27;;;8.90;99.90;;;;;;5031964;28;20187;-66
2022/04/30 00:11:59;;;;;;;363.27;345.30;;;8.90;99.90;;;;;;5033117;28;20320;-68
2022/04/30 00:14:26;;;;;;;364.90;346.27;;;8.80;99.90;;;;;;5034278;28;20187;-66
2022/04/30 00:16:52;;;;;;;314.87;299.03;;;8.80;99.90;;;;;;5033132;28;20682;-66
2022/04/30 00:19:19;;;;;;;429.37;407.33;;;8.80;99.90;;;;;;5033482;28;20190;-66
2022/04/30 00:21:45;;;;;;;422.53;401.47;;;8.80;99.90;;;;;;5033402;28;20590;-66
2022/04/30 00:24:10;;;;;;;298.87;283.93;;;8.70;99.90;;;;;;5031945;28;20218;-66
2022/04/30 00:26:36;;;;;;;416.67;393.83;;;8.60;99.90;;;;;;5041916;28;20273;-68
2022/04/30 00:29:02;;;;;;;494.17;465.83;;;8.60;99.90;;;;;;5039520;28;20329;-65
2022/04/30 00:31:28;;;;;;;410.43;389.30;;;8.50;99.90;;;;;;5033577;28;20682;-64
2022/04/30 00:33:53;;;;;;;522.60;491.63;;;8.50;99.90;;;;;;5033061;28;20205;-66
2022/04/30 00:36:19;;;;;;;477.13;452.80;;;8.50;99.90;;;;;;5033296;28;20179;-65
2022/04/30 00:38:45;;;;;;;450.20;425.97;;;8.40;99.90;;;;;;5031734;28;20190;-65
2022/04/30 00:41:10;;;;;;;435.47;412.80;;;8.50;99.90;;;;;;5025087;28;20194;-65
2022/04/30 00:43:47;;;;;;;550.77;522.00;;;8.40;99.90;;;;;;5032726;28;20194;-65
2022/04/30 00:46:14;;;;;;;573.50;542.27;;;8.50;99.90;;;;;;5015829;28;20708;-65
2022/04/30 00:48:41;;;;;;;525.93;494.60;;;8.40;99.90;;;;;;5032742;28;20198;-66
2022/04/30 00:51:13;;;;;;;777.40;730.33;;;8.40;99.90;;;;;;5033567;28;20193;-65
2022/04/30 00:53:40;;;;;;;989.63;918.73;;;8.30;99.90;;;;;;5033062;28;20652;-66
2022/04/30 00:56:11;;;;;;;934.43;870.67;;;8.30;99.90;;;;;;5032007;28;20217;-65
2022/04/30 00:58:39;;;;;;;1030.43;953.93;;;8.30;99.90;;;;;;5029021;28;20182;-67
2022/04/30 01:01:05;;;;;;;1047.67;967.23;;;8.30;99.90;;;;;;5041448;28;20552;-65
2022/04/30 01:03:31;;;;;;;1103.63;999.90;;;8.30;99.90;;;;;;5026941;28;20193;-68
2022/04/30 01:05:58;;;;;;;1051.10;972.10;;;8.30;99.90;;;;;;5046960;28;20194;-67
2022/04/30 01:08:27;;;;;;;905.90;845.13;;;8.20;99.90;;;;;;5038904;28;20279;-67
2022/04/30 01:11:00;;;;;;;761.57;715.97;;;8.20;99.90;;;;;;5033077;28;20191;-66
2022/04/30 01:13:27;;;;;;;651.17;613.23;;;8.20;99.90;;;;;;5033137;28;20187;-66
2022/04/30 01:15:52;;;;;;;626.60;590.83;;;8.20;99.90;;;;;;5034989;28;20198;-64
2022/04/30 01:18:19;;;;;;;955.27;890.20;;;8.20;99.90;;;;;;5032773;28;20236;-69
2022/04/30 01:20:51;;;;;;;673.97;635.37;;;8.20;99.90;;;;;;5020120;28;20204;-66
2022/04/30 01:23:18;;;;;;;651.23;613.70;;;8.20;99.90;;;;;;5049948;28;20273;-67
2022/04/30 01:25:46;;;;;;;548.90;516.47;;;8.10;99.90;;;;;;5032802;28;20223;-66
2022/04/30 01:28:13;;;;;;;733.67;687.97;;;8.00;99.90;;;;;;5014756;28;20257;-66
2022/04/30 01:30:39;;;;;;;743.30;697.40;;;7.90;99.90;;;;;;5032941;28;20273;-65
2022/04/30 01:38:39;;;;;;;800.77;751.70;;;7.90;99.90;;;;;;5032863;28;20210;-66
2022/04/30 01:41:05;;;;;;;848.30;795.13;;;7.90;99.90;;;;;;5014926;28;20191;-66
2022/04/30 01:43:33;;;;;;;897.03;837.33;;;7.90;99.90;;;;;;5035686;28;20194;-65
2022/04/30 01:45:59;;;;;;;678.17;635.63;;;7.90;99.90;;;;;;5034223;28;20197;-66
2022/04/30 01:48:26;;;;;;;788.10;737.93;;;7.90;99.90;;;;;;5032837;28;20190;-65
2022/04/30 01:50:52;;;;;;;746.10;702.13;;;7.80;99.90;;;;;;5014696;28;20229;-66
2022/04/30 01:53:18;;;;;;;1023.90;950.83;;;7.70;99.90;;;;;;5032497;28;20209;-65
2022/04/30 01:55:44;;;;;;;767.87;717.07;;;7.70;99.90;;;;;;5024574;28;20194;-65
2022/04/30 01:58:10;;;;;;;915.27;853.17;;;7.70;99.90;;;;;;5044516;28;20191;-66
2022/04/30 02:00:35;;;;;;;918.17;856.50;;;7.60;99.90;;;;;;5033254;28;20237;-65
2022/04/30 02:03:08;;;;;;;943.27;879.07;;;7.60;99.90;;;;;;5032764;28;20221;-66
2022/04/30 02:05:36;;;;;;;966.17;899.57;;;7.60;99.90;;;;;;5014484;28;20401;-66
2022/04/30 02:08:11;;;;;;;895.37;834.43;;;7.60;99.90;;;;;;5042197;28;20211;-66
2022/04/30 02:10:41;;;;;;;1043.10;960.67;;;7.70;99.90;;;;;;5029259;28;20202;-65
2022/04/30 02:13:09;;;;;;;934.90;869.33;;;7.60;99.90;;;;;;5036134;28;20182;-65
2022/04/30 02:15:36;;;;;;;986.03;916.27;;;7.60;99.90;;;;;;5035643;28;20194;-65
2022/04/30 02:18:10;;;;;;;899.67;840.40;;;7.70;99.90;;;;;;5035673;28;20249;-64
2022/04/30 02:20:42;;;;;;;840.27;786.23;;;7.60;99.90;;;;;;5035651;28;20241;-66
2022/04/30 02:23:09;;;;;;;946.90;879.07;;;7.50;99.90;;;;;;5018100;28;20270;-66
2022/04/30 02:25:36;;;;;;;1016.87;942.30;;;7.40;99.90;;;;;;5035438;28;20210;-65
2022/04/30 02:28:05;;;;;;;863.03;806.20;;;7.40;99.90;;;;;;5035134;28;20203;-65
2022/04/30 02:30:35;;;;;;;923.33;858.80;;;7.50;99.90;;;;;;5035557;28;20187;-64
2022/04/30 02:33:11;;;;;;;811.77;757.77;;;7.40;99.90;;;;;;5035309;28;20666;-64
2022/04/30 02:35:39;;;;;;;943.10;879.13;;;7.30;99.90;;;;;;5051993;28;20190;-66
2022/04/30 02:38:08;;;;;;;1023.80;948.90;;;7.20;99.90;;;;;;5042428;28;20185;-65
2022/04/30 02:40:34;;;;;;;1060.17;980.93;;;7.20;99.90;;;;;;5052314;28;20623;-66
2022/04/30 02:43:15;;;;;;;1020.57;946.47;;;7.20;99.90;;;;;;5036090;28;20182;-65
2022/04/30 02:45:44;;;;;;;1122.87;999.90;;;7.20;99.90;;;;;;5034976;28;20297;-65
2022/04/30 02:48:13;;;;;;;963.80;888.30;;;7.20;99.90;;;;;;5027507;28;20191;-65
2022/04/30 02:50:40;;;;;;;1072.90;989.40;;;7.30;99.90;;;;;;5035236;28;20199;-65
2022/04/30 02:53:06;;;;;;;931.23;866.60;;;7.30;99.90;;;;;;5035149;28;20210;-65
2022/04/30 02:55:32;;;;;;;1011.13;937.13;;;7.20;99.90;;;;;;5033689;28;20558;-64
2022/04/30 03:00:47;;;;;;;964.47;897.47;;;7.10;99.90;;;;;;5035419;28;20264;-65
2022/04/30 03:03:15;;;;;;;989.60;920.10;;;7.00;99.90;;;;;;5019965;28;20242;-65
2022/04/30 03:05:43;;;;;;;976.53;905.43;;;6.90;99.90;;;;;;5053518;28;20217;-65
2022/04/30 03:08:20;;;;;;;1011.40;936.17;;;6.90;99.90;;;;;;5035511;28;20244;-65
2022/04/30 03:10:53;;;;;;;940.67;875.60;;;6.80;99.90;;;;;;5053827;28;20185;-65
2022/04/30 03:13:19;;;;;;;1057.30;975.63;;;6.80;99.90;;;;;;5034616;28;20179;-65
2022/04/30 03:15:50;;;;;;;961.00;892.60;;;6.80;99.90;;;;;;5017251;28;20654;-65
2022/04/30 03:23:41;;;;;;;941.40;875.90;;;6.80;99.90;;;;;;5053472;28;20677;-65
2022/04/30 03:26:09;;;;;;;1053.30;972.27;;;6.80;99.90;;;;;;5041007;28;20282;-65
2022/04/30 03:28:37;;;;;;;1058.07;977.00;;;6.80;99.90;;;;;;5034644;28;20658;-66
2022/04/30 03:31:06;;;;;;;1083.50;995.17;;;6.90;99.90;;;;;;5042137;28;20210;-65
2022/04/30 03:33:32;;;;;;;1080.37;992.90;;;6.80;99.90;;;;;;5037629;28;20226;-65
2022/04/30 03:35:58;;;;;;;1080.77;994.57;;;6.80;99.90;;;;;;5034155;28;20194;-65
2022/04/30 03:38:25;;;;;;;1123.53;999.90;;;6.70;99.90;;;;;;5034258;28;20198;-65
2022/04/30 03:40:51;;;;;;;1031.10;948.07;;;6.70;99.90;;;;;;5016373;28;20213;-65
2022/04/30 03:43:18;;;;;;;1109.73;999.90;;;6.60;99.90;;;;;;5034012;28;20632;-65
2022/04/30 03:45:44;;;;;;;1080.90;993.87;;;6.60;99.90;;;;;;5034095;28;20313;-64
2022/04/30 03:48:12;;;;;;;1057.63;975.63;;;6.50;99.90;;;;;;5032579;28;20187;-64
2022/04/30 03:50:38;;;;;;;1095.47;998.23;;;6.50;99.90;;;;;;5033744;28;20193;-65
2022/04/30 03:53:03;;;;;;;1008.93;934.83;;;6.60;99.90;;;;;;5033121;28;20270;-65
2022/04/30 03:55:29;;;;;;;1038.97;957.93;;;6.60;99.90;;;;;;5016301;28;20190;-64
2022/04/30 03:57:55;;;;;;;1104.93;999.90;;;6.50;99.90;;;;;;5016669;28;20241;-65
2022/04/30 04:00:21;;;;;;;1109.30;999.90;;;6.60;99.90;;;;;;5032570;28;20187;-64
2022/04/30 04:02:46;;;;;;;1069.47;985.10;;;6.60;99.90;;;;;;5033667;28;20186;-65
2022/04/30 04:05:13;;;;;;;1029.97;955.47;;;6.70;99.90;;;;;;5033638;28;20691;-64
2022/04/30 04:07:39;;;;;;;959.70;890.20;;;6.80;99.90;;;;;;5033483;28;20217;-64
2022/04/30 04:10:05;;;;;;;1106.80;999.90;;;6.70;99.90;;;;;;5015908;28;20281;-64
2022/04/30 04:12:31;;;;;;;1051.40;971.07;;;6.60;99.90;;;;;;5016636;28;20222;-64
2022/04/30 04:17:41;;;;;;;1039.20;961.90;;;6.50;99.90;;;;;;5017554;28;20622;-65
2022/04/30 04:20:09;;;;;;;1068.50;986.47;;;6.60;99.90;;;;;;5031845;28;20218;-65
2022/04/30 04:22:36;;;;;;;1047.87;968.97;;;6.60;99.90;;;;;;5034003;28;20171;-65
2022/04/30 04:27:55;;;;;;;1058.67;978.43;;;6.70;99.90;;;;;;5039176;28;20253;-65
2022/04/30 04:30:26;;;;;;;1019.70;944.17;;;6.80;99.90;;;;;;5033583;28;20241;-69
2022/04/30 04:32:53;;;;;;;947.63;882.57;;;6.90;99.90;;;;;;5032813;28;20588;-65
2022/04/30 04:35:19;;;;;;;897.27;839.13;;;6.90;99.90;;;;;;5033205;28;20284;-65
2022/04/30 04:37:45;;;;;;;876.97;819.77;;;7.00;99.90;;;;;;5032853;28;20198;-68
2022/04/30 04:40:13;;;;;;;757.50;712.03;;;6.70;99.90;;;;;;5043352;28;20534;-64
2022/04/30 04:42:40;;;;;;;682.63;642.93;;;6.80;99.90;;;;;;5033554;28;20281;-64
2022/04/30 04:45:07;;;;;;;591.03;557.27;;;6.80;99.90;;;;;;5033011;28;20203;-65
2022/04/30 04:47:40;;;;;;;551.60;522.70;;;6.70;99.90;;;;;;5031649;28;20205;-65
2022/04/30 04:50:08;;;;;;;648.37;612.33;;;6.60;99.90;;;;;;5032952;28;20562;-64
2022/04/30 04:52:34;;;;;;;679.47;641.40;;;6.60;99.90;;;;;;5034574;28;20402;-65
2022/04/30 04:55:00;;;;;;;580.83;549.70;;;6.80;99.90;;;;;;5026843;28;20187;-65
2022/04/30 04:57:26;;;;;;;658.87;620.77;;;6.80;99.90;;;;;;5032700;28;20202;-65
2022/04/30 04:59:54;;;;;;;594.40;561.10;;;6.80;99.90;;;;;;5032789;28;20218;-65
2022/04/30 05:02:20;;;;;;;604.23;571.20;;;6.80;99.90;;;;;;5033208;28;20187;-64
2022/04/30 05:04:46;;;;;;;583.27;551.20;;;6.90;99.90;;;;;;5032548;28;20214;-64
2022/04/30 05:07:12;;;;;;;519.10;493.33;;;6.90;99.90;;;;;;5032907;28;20221;-65
2022/04/30 05:09:38;;;;;;;411.00;389.50;;;6.90;99.90;;;;;;5015468;28;20183;-64
2022/04/30 05:12:04;;;;;;;650.00;613.23;;;6.70;99.90;;;;;;5031724;28;20194;-65
2022/04/30 05:14:32;;;;;;;490.30;464.67;;;6.70;99.90;;;;;;5032857;28;20281;-66
2022/04/30 05:17:04;;;;;;;493.67;467.73;;;6.80;99.90;;;;;;5045654;28;20669;-66
2022/04/30 05:19:30;;;;;;;289.80;275.93;;;7.00;99.90;;;;;;5031645;28;20245;-66
2022/04/30 05:21:56;;;;;;;382.43;364.20;;;6.90;99.90;;;;;;5033011;28;20242;-65
2022/04/30 05:24:22;;;;;;;422.63;401.60;;;6.90;99.90;;;;;;5033201;28;20605;-66
2022/04/30 05:26:51;;;;;;;417.27;396.07;;;7.00;99.90;;;;;;5015140;28;20209;-64
2022/04/30 05:29:17;;;;;;;434.03;412.93;;;7.00;99.90;;;;;;5031629;28;20187;-66
2022/04/30 05:31:43;;;;;;;279.03;265.37;;;7.00;99.90;;;;;;5047600;28;20194;-65
2022/04/30 05:34:09;;;;;;;427.60;406.30;;;7.00;99.90;;;;;;5018975;28;20202;-65
2022/04/30 05:36:35;;;;;;;312.07;297.20;;;6.90;99.90;;;;;;4998745;28;20527;-65
2022/04/30 05:39:01;;;;;;;404.37;384.40;;;6.90;99.90;;;;;;5016292;28;20209;-65
2022/04/30 05:41:28;;;;;;;404.33;384.73;;;6.90;99.90;;;;;;5022666;28;20182;-65
2022/04/30 05:43:54;;;;;;;483.93;457.97;;;7.00;99.90;;;;;;5019168;28;20229;-65
2022/04/30 05:46:20;;;;;;;399.53;378.80;;;7.30;99.90;;;;;;5036745;28;20218;-65
2022/04/30 05:48:45;;;;;;;303.30;288.90;;;7.30;99.90;;;;;;5036060;28;20191;-65
2022/04/30 05:51:11;;;;;;;345.07;328.57;;;7.30;99.90;;;;;;5018636;28;20218;-65
2022/04/30 05:53:37;;;;;;;309.53;294.43;;;7.20;99.90;;;;;;5018421;28;20198;-65
2022/04/30 05:56:02;;;;;;;380.60;361.67;;;7.50;99.90;;;;;;5028559;28;20256;-65
2022/04/30 05:58:28;;;;;;;353.70;336.17;;;7.50;99.90;;;;;;5036189;28;20186;-65
2022/04/30 06:00:54;;;;;;;279.50;266.00;;;7.40;99.90;;;;;;5036305;28;20575;-67
2022/04/30 06:03:20;;;;;;;352.73;335.10;;;7.50;99.90;;;;;;5047322;28;20185;-65
2022/04/30 06:05:48;;;;;;;343.53;326.07;;;7.60;99.90;;;;;;5026555;28;20222;-65
2022/04/30 06:08:17;;;;;;;309.47;294.13;;;7.70;99.90;;;;;;5033631;28;20206;-66
2022/04/30 06:10:42;;;;;;;300.50;284.43;;;7.80;99.90;;;;;;5036269;28;20194;-65
2022/04/30 06:13:08;;;;;;;357.23;339.30;;;7.80;99.90;;;;;;5036048;28;20443;-65
2022/04/30 06:15:34;;;;;;;334.60;318.30;;;7.90;99.90;;;;;;5035735;28;20688;-65
2022/04/30 06:17:59;;;;;;;273.90;260.53;;;7.80;99.90;;;;;;5035896;28;20183;-65
2022/04/30 06:20:25;;;;;;;337.97;322.00;;;8.00;99.90;;;;;;5035731;28;20244;-65
2022/04/30 06:22:51;;;;;;;373.37;355.73;;;7.90;99.90;;;;;;5035019;28;20639;-65
2022/04/30 06:25:17;;;;;;;354.50;337.50;;;8.00;99.90;;;;;;5045795;28;20565;-65
2022/04/30 06:27:42;;;;;;;362.27;343.70;;;8.10;99.90;;;;;;5047600;28;20221;-65
2022/04/30 06:30:09;;;;;;;267.13;253.43;;;8.20;99.90;;;;;;5023976;28;20305;-65
2022/04/30 06:32:35;;;;;;;424.83;401.57;;;8.50;99.90;;;;;;5030161;28;20191;-65
2022/04/30 06:35:04;;;;;;;344.17;327.30;;;8.60;99.90;;;;;;5034814;28;20252;-65
2022/04/30 06:37:30;;;;;;;389.57;369.93;;;8.80;99.90;;;;;;5034217;28;20194;-66
2022/04/30 06:39:55;;;;;;;393.90;373.50;;;8.80;99.90;;;;;;5035238;28;20197;-65
2022/04/30 06:42:21;;;;;;;315.87;300.60;;;8.80;99.90;;;;;;5018491;28;20187;-66
2022/04/30 06:44:47;;;;;;;535.30;504.47;;;9.00;99.90;;;;;;5054696;28;20216;-65
2022/04/30 06:47:14;;;;;;;478.93;451.17;;;9.10;99.90;;;;;;5036860;28;20214;-65
2022/04/30 06:49:40;;;;;;;461.40;434.87;;;9.30;99.90;;;;;;5029490;28;20183;-65
2022/04/30 06:52:06;;;;;;;589.90;554.87;;;9.30;99.90;;;;;;5035280;28;20301;-65
2022/04/30 06:57:18;;;;;;;475.70;449.53;;;9.30;99.90;;;;;;5043638;28;20228;-65
2022/04/30 06:59:45;;;;;;;493.80;467.47;;;9.40;99.90;;;;;;5001778;28;20567;-65
2022/04/30 07:02:23;;;;;;;575.13;545.57;;;9.50;99.90;;;;;;5017190;28;20198;-66
2022/04/30 07:04:51;;;;;;;426.50;404.90;;;9.40;99.90;;;;;;5017220;28;20360;-65
2022/04/30 07:07:18;;;;;;;346.90;330.33;;;9.60;99.90;;;;;;5035516;28;20209;-67
2022/04/30 07:09:44;;;;;;;388.63;370.07;;;9.90;99.90;;;;;;5033789;28;20190;-65
2022/04/30 07:12:13;;;;;;;306.43;291.53;;;10.00;99.90;;;;;;5048573;28;20549;-67
2022/04/30 07:14:40;;;;;;;392.03;372.27;;;10.10;99.90;;;;;;5043456;28;20191;-65
2022/04/30 07:17:11;;;;;;;501.00;469.97;;;10.00;99.90;;;;;;5034483;28;20194;-66
2022/04/30 07:19:37;;;;;;;265.60;252.70;;;9.90;99.90;;;;;;5034531;28;20202;-65
2022/04/30 07:22:03;;;;;;;549.73;515.37;;;9.90;99.90;;;;;;5032933;28;20195;-66
2022/04/30 07:24:30;;;;;;;338.80;321.40;;;10.20;99.90;;;;;;5032571;28;20692;-66
2022/04/30 07:26:56;;;;;;;302.10;288.00;;;10.30;99.90;;;;;;5034332;28;20210;-66
2022/04/30 07:29:22;;;;;;;624.33;588.07;;;10.50;99.90;;;;;;5034517;28;20237;-64
2022/04/30 07:31:48;;;;;;;462.97;438.67;;;10.90;99.90;;;;;;5043962;28;21388;-66
2022/04/30 07:34:14;;;;;;;487.60;461.63;;;11.30;99.90;;;;;;5034426;28;20186;-65
2022/04/30 07:36:40;;;;;;;535.15;506.92;;;11.20;99.90;;;;;;5036870;28;20243;-65
2022/04/30 07:39:06;;;;;;;342.13;326.58;;;11.70;99.90;;;;;;5016694;28;20266;-65
2022/04/30 07:41:32;;;;;;;621.10;587.23;;;11.20;99.90;;;;;;5033348;28;20179;-66
2022/04/30 07:43:57;;;;;;;693.97;655.33;;;10.70;99.90;;;;;;5034000;28;20190;-66
2022/04/30 07:46:23;;;;;;;408.07;387.77;;;10.50;99.90;;;;;;5033963;28;20190;-64
2022/04/30 07:48:50;;;;;;;464.83;441.10;;;10.60;99.90;;;;;;5033531;28;21022;-65
2022/04/30 07:51:29;;;;;;;422.23;401.17;;;10.60;99.90;;;;;;5034009;28;20200;-66
2022/04/30 07:53:54;;;;;;;493.70;468.60;;;10.50;99.90;;;;;;5034003;28;20186;-63
2022/04/30 07:56:20;;;;;;;439.70;418.27;;;10.20;99.90;;;;;;5033755;28;20253;-64
2022/04/30 07:58:46;;;;;;;367.07;349.27;;;10.50;99.90;;;;;;5042150;28;20185;-64
2022/04/30 08:01:13;;;;;;;300.73;286.30;;;12.10;99.90;;;;;;5042388;28;20182;-65
2022/04/30 08:03:40;;;;;;;486.08;463.50;;;12.70;99.90;;;;;;5033190;28;20212;-64
2022/04/30 08:06:06;;;;;;;568.47;537.80;;;13.20;99.90;;;;;;5033045;28;20222;-65
2022/04/30 08:08:31;;;;;;;751.20;709.47;;;12.80;99.90;;;;;;5033917;28;20197;-67
2022/04/30 08:10:57;;;;;;;753.30;712.97;;;12.10;99.90;;;;;;5016147;28;20198;-68
2022/04/30 08:13:23;;;;;;;740.20;700.20;;;11.60;99.90;;;;;;5032186;28;20189;-66
2022/04/30 08:15:48;;;;;;;795.27;750.97;;;11.20;99.90;;;;;;5023537;28;20557;-66
2022/04/30 08:18:14;;;;;;;727.97;688.60;;;11.00;99.90;;;;;;5033427;28;20197;-67
2022/04/30 08:20:40;;;;;;;787.67;742.63;;;10.70;99.90;;;;;;5032466;28;20193;-68
2022/04/30 08:23:06;;;;;;;830.13;781.77;;;10.40;99.90;;;;;;5031199;28;20187;-67
2022/04/30 08:25:34;;;;;;;742.17;701.47;;;10.10;99.90;;;;;;5033450;28;20221;-68
2022/04/30 08:28:03;;;;;;;746.63;706.33;;;10.20;99.90;;;;;;5030407;28;20189;-68
2022/04/30 08:30:29;;;;;;;746.70;706.17;;;10.30;99.90;;;;;;5022768;28;20537;-67
2022/04/30 08:32:55;;;;;;;653.37;620.17;;;10.20;99.90;;;;;;5052304;28;20196;-65
2022/04/30 08:35:21;;;;;;;717.10;678.73;;;10.30;99.90;;;;;;5047912;28;20635;-66
2022/04/30 08:37:46;;;;;;;775.53;731.27;;;10.60;99.90;;;;;;5015833;28;20731;-65
2022/04/30 08:40:12;;;;;;;667.97;633.37;;;10.90;99.90;;;;;;5044116;28;20191;-64
2022/04/30 08:42:41;;;;;;;548.17;521.42;;;12.40;99.90;;;;;;5032026;28;20639;-65
2022/04/30 08:45:09;;;;;;;716.13;678.33;;;13.10;99.90;;;;;;5038942;28;20292;-64
2022/04/30 08:47:40;;;;;;;778.97;735.50;;;13.30;99.90;;;;;;5016410;28;20706;-65
2022/04/30 08:50:11;;;;;;;811.13;765.42;;;12.60;99.90;;;;;;5040942;28;20174;-65
2022/04/30 08:52:37;;;;;;;733.70;695.00;;;12.20;99.90;;;;;;5032962;28;20182;-66
2022/04/30 08:55:08;;;;;;;809.30;763.42;;;12.40;99.90;;;;;;5033261;28;20197;-66
2022/04/30 08:57:34;;;;;;;758.63;718.03;;;12.10;99.90;;;;;;5021867;28;20217;-66
2022/04/30 09:00:01;;;;;;;772.95;730.50;;;11.90;99.90;;;;;;5043046;28;20225;-66
2022/04/30 09:02:27;;;;;;;814.50;768.40;;;12.30;99.90;;;;;;5032826;28;20244;-67
2022/04/30 09:04:54;;;;;;;789.38;745.90;;;12.50;99.90;;;;;;5031408;28;20218;-67
2022/04/30 09:07:25;;;;;;;760.53;720.10;;;12.50;99.90;;;;;;5028496;28;20638;-67
2022/04/30 09:09:56;;;;;;;809.20;763.20;;;12.50;99.90;;;;;;5048870;28;20183;-67
2022/04/30 09:12:22;;;;;;;776.60;734.45;;;12.30;99.90;;;;;;5041034;28;20255;-71
2022/04/30 09:14:47;;;;;;;760.47;719.42;;;12.30;99.90;;;;;;5032877;28;20190;-67
2022/04/30 09:17:15;;;;;;;752.20;712.55;;;13.00;99.90;;;;;;5038773;28;20189;-67
2022/04/30 09:19:47;;;;;;;753.22;712.47;;;13.30;99.90;;;;;;5023190;28;20269;-66
2022/04/30 09:22:15;;;;;;;774.40;732.35;;;13.50;99.90;;;;;;5044289;28;20635;-68
2022/04/30 09:25:03;;;;;;;750.10;710.67;;;13.40;99.90;;;;;;5045426;28;20755;-69
2022/04/30 09:27:29;;;;;;;762.95;722.50;;;13.60;99.90;;;;;;5022420;28;20185;-68
2022/04/30 09:29:55;;;;;;;736.47;698.35;;;13.80;99.90;;;;;;5022738;28;20197;-67
2022/04/30 09:32:24;;;;;;;709.97;673.88;;;14.10;99.90;;;;;;5016988;28;20191;-69
2022/04/30 09:37:41;;;;;;;823.40;776.90;;;13.80;99.90;;;;;;5044503;28;20202;-68
2022/04/30 09:40:17;;;;;;;820.35;774.03;;;13.00;99.90;;;;;;5035517;28;20657;-70
2022/04/30 09:42:48;;;;;;;828.58;781.20;;;12.60;99.90;;;;;;5069292;28;20181;-68
2022/04/30 09:45:24;;;;;;;808.25;763.00;;;12.80;99.90;;;;;;5028785;28;20700;-68
2022/04/30 09:47:51;;;;;;;811.28;766.03;;;13.50;99.90;;;;;;5042000;28;20271;-68
2022/04/30 09:55:57;;;;;;;786.95;744.28;;;14.30;99.90;;;;;;5051890;28;20257;-68
2022/04/30 09:58:25;;;;;;;747.13;707.72;;;13.80;99.90;;;;;;5018175;28;20252;-68
2022/04/30 10:00:59;;;;;;;717.08;679.85;;;13.80;99.90;;;;;;5034750;28;20278;-67
2022/04/30 10:03:30;;;;;;;729.42;691.58;;;14.00;99.90;;;;;;5050596;28;20627;-68
2022/04/30 10:06:01;;;;;;;743.63;704.83;;;14.00;99.90;;;;;;5036386;28;20298;-67
2022/04/30 10:08:42;;;;;;;769.63;728.20;;;14.10;99.90;;;;;;5055041;28;20191;-68
2022/04/30 10:11:32;;;;;;;788.58;745.42;;;14.10;99.90;;;;;;5049069;28;20182;-70
2022/04/30 10:14:35;;;;;;;745.08;706.03;;;13.60;99.90;;;;;;5042303;28;20506;-71
2022/04/30 10:17:12;;;;;;;767.88;726.70;;;13.70;99.90;;;;;;5018671;28;20646;-69
2022/04/30 10:19:41;;;;;;;755.03;715.03;;;14.00;99.90;;;;;;5054689;28;20178;-69
2022/04/30 10:22:15;;;;;;;764.35;723.55;;;14.60;99.90;;;;;;5044376;28;20584;-70
2022/04/30 10:24:46;;;;;;;736.42;698.33;;;14.20;99.90;;;;;;5047832;28;21016;-72
2022/04/30 10:27:12;;;;;;;759.58;719.35;;;13.80;99.90;;;;;;5023663;28;20205;-71
2022/04/30 10:29:37;;;;;;;722.55;684.58;;;13.80;99.90;;;;;;5048025;28;20670;-68
2022/04/30 10:32:04;;;;;;;747.05;707.80;;;13.70;99.90;;;;;;5041215;28;20183;-68
2022/04/30 10:34:31;;;;;;;682.28;647.90;;;13.50;99.90;;;;;;5031725;28;20178;-69
2022/04/30 10:37:01;;;;;;;741.85;702.88;;;13.50;99.90;;;;;;5019526;28;20667;-68
2022/04/30 10:39:27;;;;;;;706.42;670.58;;;13.80;99.90;;;;;;5034979;28;20206;-68
2022/04/30 10:41:53;;;;;;;698.10;663.22;;;13.60;99.90;;;;;;5020720;28;20185;-67
2022/04/30 10:44:32;;;;;;;702.30;667.15;;;13.70;99.90;;;;;;5036125;28;20213;-67
2022/04/30 10:47:14;;;;;;;665.75;632.75;;;14.00;99.90;;;;;;5036268;28;20186;-69
2022/04/30 10:49:40;;;;;;;704.95;669.00;;;14.30;99.90;;;;;;5033152;28;20185;-68
2022/04/30 10:52:07;;;;;;;711.25;674.53;;;14.30;99.90;;;;;;5025793;28;20230;-69
2022/04/30 10:54:34;;;;;;;718.30;681.03;;;14.50;99.90;;;;;;5017871;28;20709;-69
2022/04/30 10:57:03;;;;;;;698.38;662.40;;;14.20;99.90;;;;;;5035278;28;20183;-70
2022/04/30 10:59:28;;;;;;;722.72;685.83;;;14.00;99.90;;;;;;5035106;28;20183;-71
2022/04/30 11:01:54;;;;;;;713.90;677.85;;;14.00;99.90;;;;;;5042561;28;20198;-69
2022/04/30 11:04:21;;;;;;;582.95;555.70;;;13.50;99.90;;;;;;5045994;28;20637;-69
2022/04/30 11:06:52;;;;;;;741.22;701.97;;;13.40;99.90;;;;;;5028098;28;20191;-69
2022/04/30 11:09:19;;;;;;;701.40;665.88;;;13.40;99.90;;;;;;5034909;28;20228;-70
2022/04/30 11:11:47;;;;;;;659.47;627.60;;;13.50;99.90;;;;;;5046848;28;20186;-70
2022/04/30 11:14:14;;;;;;;662.40;630.33;;;13.80;99.90;;;;;;5034333;28;20178;-71
2022/04/30 11:16:47;;;;;;;596.25;568.47;;;14.30;99.90;;;;;;5017433;28;20205;-69
2022/04/30 11:19:14;;;;;;;648.05;617.22;;;14.70;99.90;;;;;;5039934;28;20186;-69
2022/04/30 11:21:44;;;;;;;603.80;575.75;;;15.20;99.90;;;;;;5018261;28;20240;-69
2022/04/30 11:24:11;;;;;;;703.28;667.45;;;15.60;99.90;;;;;;5016542;28;20623;-69
2022/04/30 11:26:41;;;;;;;678.75;645.28;;;15.70;99.90;;;;;;5053398;28;20280;-69
2022/04/30 11:29:12;;;;;;;675.03;641.72;;;15.10;99.90;;;;;;5036271;28;20197;-70
2022/04/30 11:31:38;;;;;;;661.03;628.90;;;14.90;99.90;;;;;;5034789;28;20182;-70
2022/04/30 11:34:11;;;;;;;648.97;617.70;;;14.80;99.90;;;;;;5037143;28;20186;-70
2022/04/30 11:36:42;;;;;;;639.08;608.65;;;15.10;99.90;;;;;;5015217;28;20186;-71
2022/04/30 11:39:12;;;;;;;725.25;687.95;;;15.20;99.90;;;;;;5034367;28;20171;-69
2022/04/30 11:41:42;;;;;;;689.45;655.20;;;15.10;99.90;;;;;;5020438;28;20644;-69
2022/04/30 11:44:09;;;;;;;668.67;635.97;;;14.80;99.90;;;;;;5043482;28;20190;-69
2022/04/30 11:46:37;;;;;;;682.67;648.92;;;14.50;99.90;;;;;;5052731;28;20522;-69
2022/04/30 11:49:20;;;;;;;650.13;619.08;;;14.20;99.90;;;;;;5036982;28;20273;-69
2022/04/30 11:51:47;;;;;;;644.05;613.60;;;14.70;99.90;;;;;;5018804;28;20197;-69
2022/04/30 11:54:16;;;;;;;632.78;602.95;;;15.30;99.90;;;;;;5015070;28;20676;-69
2022/04/30 11:56:44;;;;;;;651.50;620.15;;;15.40;99.90;;;;;;5037645;28;20178;-68
2022/04/30 11:59:10;;;;;;;640.70;609.63;;;15.30;99.90;;;;;;5042392;28;20241;-70
2022/04/30 12:01:44;;;;;;;623.05;593.33;;;15.60;99.90;;;;;;5065250;28;20631;-66
2022/04/30 12:04:14;;;;;;;626.72;597.50;;;15.70;99.90;;;;;;5062524;28;20177;-68
2022/04/30 12:06:45;;;;;;;628.45;599.17;;;15.90;99.90;;;;;;5051033;28;20182;-68
2022/04/30 12:09:15;;;;;;;653.10;621.97;;;16.00;99.90;;;;;;5062817;28;20256;-72
2022/04/30 12:11:47;;;;;;;654.05;622.70;;;15.90;99.90;;;;;;5065975;28;20265;-66
2022/04/30 12:14:13;;;;;;;643.85;613.03;;;15.90;99.90;;;;;;5056854;28;20181;-69
2022/04/30 12:16:40;;;;;;;660.15;628.55;;;15.50;99.90;;;;;;5051638;28;20190;-69
2022/04/30 12:25:07;;;;;;;615.80;587.13;;;16.10;99.90;;;;;;5051691;28;20657;-66
2022/04/30 12:27:33;;;;;;;586.90;560.28;;;16.30;99.90;;;;;;5049866;28;20209;-69
2022/04/30 12:30:21;;;;;;;617.60;588.75;;;16.40;99.90;;;;;;5056083;28;20189;-70
2022/04/30 12:33:03;;;;;;;621.88;592.75;;;16.50;99.90;;;;;;5054584;28;20173;-70
2022/04/30 12:35:31;;;;;;;625.22;595.92;;;16.60;99.90;;;;;;5053120;28;20601;-68
2022/04/30 12:38:13;;;;;;;621.38;592.42;;;16.50;99.90;;;;;;5094460;28;20182;-69
2022/04/30 12:40:41;;;;;;;622.72;593.88;;;16.00;99.90;;;;;;5054660;28;20212;-69
2022/04/30 12:43:07;;;;;;;638.72;608.45;;;15.50;99.90;;;;;;5051007;28;20545;-69
2022/04/30 12:45:33;;;;;;;648.78;617.10;;;15.00;99.90;;;;;;5083175;28;20179;-70
2022/04/30 12:48:00;;;;;;;629.50;600.17;;;15.00;99.90;;;;;;5094692;28;20246;-69
2022/04/30 12:50:27;;;;;;;676.53;643.58;;;14.60;99.90;;;;;;5050087;28;20223;-68
2022/04/30 12:52:53;;;;;;;633.83;603.95;;;14.40;99.90;;;;;;5063772;28;20208;-68